Poeta Lopez Anglada — EADS — position and weather

sailwx.info

Track history (hours):
 
Tides and Currents Weather Stations Pressure Air Temp Water Temp Dewpoint Dewpoint Depression Visibility Wind Speed Wind Dir Waves Ship Positions

Poeta Lopez Anglada

Last reported at 2017-Nov-23 17:24 UTC. Time now 2017-Nov-23 20:40 UTC.
Position N 35°57' W 005°29'.

Length 134 m; draft 4.5 m.

Type: Passenger vessel. MMSI: 225409000.

Date/timePositionNaut miles runAvg speedWind from/ knotsBaromVisibWave heightAir tempDewpointWater temp
2017-Nov-23 17:24N 35°57' W 005°29'3 0.9
2017-Nov-23 14:03N 35°59' W 005°26'118.1
2017-Nov-23 14:00N 35°58' W 005°26'2 0.6
2017-Nov-23 10:19N 35°57' W 005°29'614.8
2017-Nov-23 09:54N 36°02' W 005°24'4 1.2
2017-Nov-23 06:38N 35°58' W 005°26'4 1.7
2017-Nov-23 04:30N 35°56' W 005°29'816.2
2017-Nov-23 04:00N 36°03' W 005°25'5 4.5
2017-Nov-23 02:55N 36°08' W 005°26'1 3.2
2017-Nov-23 02:27N 36°09' W 005°25'716.5
2017-Nov-23 02:00N 36°01' W 005°24'6 1.6
2017-Nov-22 22:33N 35°57' W 005°29'116.6
2017-Nov-22 22:30N 35°58' W 005°29'816.5
2017-Nov-22 22:00N 36°05' W 005°24'3 1.3
2017-Nov-22 19:24N 36°08' W 005°26'  
2017-Nov-19 22:26N 35°56' W 005°30'716.9
2017-Nov-19 22:01N 36°02' W 005°25'6 2.6
2017-Nov-19 19:45N 36°08' W 005°26'2 6.4
2017-Nov-19 19:30N 36°08' W 005°24'916.5
2017-Nov-19 18:59N 35°59' W 005°26'4 2.0
2017-Nov-19 16:46N 35°56' W 005°30'615.7
2017-Nov-19 16:25N 36°00' W 005°25'716.5
2017-Nov-19 16:00N 36°07' W 005°24'2 1.0
2017-Nov-19 14:03N 36°08' W 005°26'0 7.6
2017-Nov-19 14:00N 36°08' W 005°26'5 9.7
2017-Nov-19 13:30N 36°04' W 005°24'815.8
2017-Nov-19 13:00N 35°57' W 005°29'1 0.3
2017-Nov-19 10:18N 35°57' W 005°29'11 4.2
2017-Nov-19 07:42N 36°08' W 005°26'2 7.3
2017-Nov-19 07:22N 36°07' W 005°23'617.5
2017-Nov-19 07:01N 36°01' W 005°25'5 1.9
2017-Nov-19 04:34N 35°58' W 005°29'516.8
2017-Nov-19 04:17N 36°02' W 005°25'3 1.2
2017-Nov-19 01:51N 35°59' W 005°26'4 1.5
2017-Nov-18 22:52N 35°56' W 005°30'617.2
2017-Nov-18 22:30N 36°01' W 005°25'7 3.1
2017-Nov-18 20:21N 36°08' W 005°26'2 6.7
2017-Nov-18 20:00N 36°06' W 005°24'917.1
2017-Nov-18 19:30N 35°58' W 005°27'10 1.8
2017-Nov-18 13:58N 36°08' W 005°26'810.9
2017-Nov-18 13:14N 36°00' W 005°25'416.4
2017-Nov-18 13:00N 35°57' W 005°28'4 0.6
2017-Nov-18 06:37N 35°60' W 005°24'219.0
2017-Nov-18 06:30N 35°58' W 005°26'4 1.6
2017-Nov-18 04:13N 35°56' W 005°30'416.2
2017-Nov-18 04:00N 35°59' W 005°28'916.5
2017-Nov-18 03:29N 36°07' W 005°24'2 3.6
2017-Nov-18 02:59N 36°08' W 005°26'0 0.0
2017-Nov-18 02:26N 36°08' W 005°26'2 3.1
2017-Nov-18 01:49N 36°08' W 005°24'517.0
2017-Nov-18 01:30N 36°03' W 005°24'8 2.8
2017-Nov-17 22:39N 35°56' W 005°30'217.0
2017-Nov-17 22:31N 35°58' W 005°29'816.3
2017-Nov-17 22:01N 36°05' W 005°23'1 0.4
2017-Nov-17 19:01N 36°06' W 005°23'017.5
2017-Nov-17 19:00N 36°06' W 005°23'917.7
2017-Nov-17 18:31N 35°58' W 005°26'3 1.4
2017-Nov-17 16:28N 35°57' W 005°30'4 1.0
2017-Nov-17 12:41N 35°58' W 005°26'3 1.1
2017-Nov-17 10:09N 35°58' W 005°29'3 0.8
2017-Nov-17 06:35N 35°59' W 005°26'219.3
2017-Nov-17 06:30N 35°57' W 005°27'3 1.3
2017-Nov-17 04:26N 35°56' W 005°30'716.0
2017-Nov-17 04:00N 36°02' W 005°25'6 9.5
2017-Nov-17 03:23N 36°08' W 005°26'0 0.0
2017-Nov-17 02:59N 36°08' W 005°26'0 0.0
2017-Nov-17 01:51N 36°08' W 005°26'2 3.6
2017-Nov-17 01:24N 36°08' W 005°24'717.3
2017-Nov-17 01:00N 36°01' W 005°25'6 2.5
2017-Nov-16 22:25N 35°56' W 005°30'716.5
2017-Nov-16 22:00N 36°02' W 005°25'610.3
2017-Nov-16 21:23N 36°08' W 005°26'10 3.9
2017-Nov-16 18:58N 35°59' W 005°26'3 1.2
2017-Nov-16 16:33N 35°57' W 005°29'115.4
2017-Nov-16 16:30N 35°58' W 005°28'816.0
2017-Nov-16 16:00N 36°05' W 005°24'6 2.0
2017-Nov-16 12:51N 35°59' W 005°25'3 1.1
2017-Nov-16 10:15N 35°58' W 005°29'516.9
2017-Nov-16 09:58N 36°02' W 005°25'5 1.7
2017-Nov-16 07:04N 36°07' W 005°24'117.3
2017-Nov-16 07:00N 36°06' W 005°23'917.8
2017-Nov-16 06:31N 35°57' W 005°27'2 1.4
2017-Nov-16 04:57N 35°56' W 005°30'716.2
2017-Nov-16 04:31N 36°02' W 005°25'6 3.5
2017-Nov-16 02:52N 36°08' W 005°26'4 7.8
2017-Nov-16 02:24N 36°05' W 005°24'717.7
2017-Nov-16 02:01N 35°58' W 005°26'4 1.7
2017-Nov-15 23:45N 35°56' W 005°30'415.9
2017-Nov-15 23:30N 35°59' W 005°27'715.0
2017-Nov-15 23:00N 36°06' W 005°24'8 2.6
2017-Nov-15 19:58N 35°59' W 005°26'2 0.8
2017-Nov-15 16:49N 35°58' W 005°29'4 1.0
2017-Nov-15 13:04N 35°60' W 005°25'117.7
2017-Nov-15 13:00N 35°59' W 005°26'4 1.5
2017-Nov-15 10:18N 35°57' W 005°30'5 1.4
2017-Nov-15 07:08N 35°59' W 005°25'217.8
2017-Nov-15 07:00N 35°58' W 005°27'3 1.2
2017-Nov-15 04:57N 35°56' W 005°30'714.8
2017-Nov-15 04:30N 36°01' W 005°24'7 4.1
2017-Nov-15 02:49N 36°08' W 005°26'3 8.2
2017-Nov-15 02:30N 36°06' W 005°24'816.7
2017-Nov-15 02:00N 35°58' W 005°26'3 0.7
2017-Nov-14 22:25N 35°58' W 005°29'3 0.8
2017-Nov-14 19:03N 35°58' W 005°26'119.1
2017-Nov-14 19:00N 35°58' W 005°27'2 0.7
2017-Nov-14 16:15N 35°58' W 005°29'513.5
2017-Nov-14 15:51N 36°02' W 005°24'4 1.2
2017-Nov-14 12:41N 35°58' W 005°26'2 0.9
2017-Nov-14 10:18N 35°58' W 005°29'514.8
2017-Nov-14 09:56N 36°02' W 005°25'6 1.1
2017-Nov-14 04:39N 36°08' W 005°26'0 0.0
2017-Nov-14 04:21N 36°08' W 005°26'0 0.0
2017-Nov-14 03:45N 36°08' W 005°26'0 0.0
2017-Nov-14 03:30N 36°08' W 005°26'0 0.0
2017-Nov-14 02:57N 36°08' W 005°26'0 0.0
2017-Nov-14 02:31N 36°08' W 005°26'0 0.4
2017-Nov-14 01:45N 36°08' W 005°26'2 6.4
2017-Nov-14 01:28N 36°08' W 005°24'817.9
2017-Nov-14 01:00N 35°60' W 005°25'5 1.9
2017-Nov-13 22:17N 35°56' W 005°30'515.2
2017-Nov-13 21:56N 35°60' W 005°25'  
Track history (hours):
 
Tides and Currents Weather Stations Pressure Air Temp Water Temp Dewpoint Dewpoint Depression Visibility Wind Speed Wind Dir Waves Ship Positions

Poeta Lopez Anglada

Last reported at 2017-Nov-23 17:24 UTC. Time now 2017-Nov-23 20:40 UTC.
Position N 35°57' W 005°29'.

Length 134 m; draft 4.5 m.

Type: Passenger vessel. MMSI: 225409000.

Date/timePositionNaut miles runAvg speedWind from/ knotsBaromVisibWave heightAir tempDewpointWater temp
2017-Nov-23 17:24N 35°57' W 005°29'3 0.9
2017-Nov-23 14:03N 35°59' W 005°26'118.1
2017-Nov-23 14:00N 35°58' W 005°26'2 0.6
2017-Nov-23 10:19N 35°57' W 005°29'614.8
2017-Nov-23 09:54N 36°02' W 005°24'4 1.2
2017-Nov-23 06:38N 35°58' W 005°26'4 1.7
2017-Nov-23 04:30N 35°56' W 005°29'816.2
2017-Nov-23 04:00N 36°03' W 005°25'5 4.5
2017-Nov-23 02:55N 36°08' W 005°26'1 3.2
2017-Nov-23 02:27N 36°09' W 005°25'716.5
2017-Nov-23 02:00N 36°01' W 005°24'6 1.6
2017-Nov-22 22:33N 35°57' W 005°29'116.6
2017-Nov-22 22:30N 35°58' W 005°29'816.5
2017-Nov-22 22:00N 36°05' W 005°24'3 1.3
2017-Nov-22 19:24N 36°08' W 005°26'  
2017-Nov-19 22:26N 35°56' W 005°30'716.9
2017-Nov-19 22:01N 36°02' W 005°25'6 2.6
2017-Nov-19 19:45N 36°08' W 005°26'2 6.4
2017-Nov-19 19:30N 36°08' W 005°24'916.5
2017-Nov-19 18:59N 35°59' W 005°26'4 2.0
2017-Nov-19 16:46N 35°56' W 005°30'615.7
2017-Nov-19 16:25N 36°00' W 005°25'716.5
2017-Nov-19 16:00N 36°07' W 005°24'2 1.0
2017-Nov-19 14:03N 36°08' W 005°26'0 7.6
2017-Nov-19 14:00N 36°08' W 005°26'5 9.7
2017-Nov-19 13:30N 36°04' W 005°24'815.8
2017-Nov-19 13:00N 35°57' W 005°29'1 0.3
2017-Nov-19 10:18N 35°57' W 005°29'11 4.2
2017-Nov-19 07:42N 36°08' W 005°26'2 7.3
2017-Nov-19 07:22N 36°07' W 005°23'617.5
2017-Nov-19 07:01N 36°01' W 005°25'5 1.9
2017-Nov-19 04:34N 35°58' W 005°29'516.8
2017-Nov-19 04:17N 36°02' W 005°25'3 1.2
2017-Nov-19 01:51N 35°59' W 005°26'4 1.5
2017-Nov-18 22:52N 35°56' W 005°30'617.2
2017-Nov-18 22:30N 36°01' W 005°25'7 3.1
2017-Nov-18 20:21N 36°08' W 005°26'2 6.7
2017-Nov-18 20:00N 36°06' W 005°24'917.1
2017-Nov-18 19:30N 35°58' W 005°27'10 1.8
2017-Nov-18 13:58N 36°08' W 005°26'810.9
2017-Nov-18 13:14N 36°00' W 005°25'416.4
2017-Nov-18 13:00N 35°57' W 005°28'4 0.6
2017-Nov-18 06:37N 35°60' W 005°24'219.0
2017-Nov-18 06:30N 35°58' W 005°26'4 1.6
2017-Nov-18 04:13N 35°56' W 005°30'416.2
2017-Nov-18 04:00N 35°59' W 005°28'916.5
2017-Nov-18 03:29N 36°07' W 005°24'2 3.6
2017-Nov-18 02:59N 36°08' W 005°26'0 0.0
2017-Nov-18 02:26N 36°08' W 005°26'2 3.1
2017-Nov-18 01:49N 36°08' W 005°24'517.0
2017-Nov-18 01:30N 36°03' W 005°24'8 2.8
2017-Nov-17 22:39N 35°56' W 005°30'217.0
2017-Nov-17 22:31N 35°58' W 005°29'816.3
2017-Nov-17 22:01N 36°05' W 005°23'1 0.4
2017-Nov-17 19:01N 36°06' W 005°23'017.5
2017-Nov-17 19:00N 36°06' W 005°23'917.7
2017-Nov-17 18:31N 35°58' W 005°26'3 1.4
2017-Nov-17 16:28N 35°57' W 005°30'4 1.0
2017-Nov-17 12:41N 35°58' W 005°26'3 1.1
2017-Nov-17 10:09N 35°58' W 005°29'3 0.8
2017-Nov-17 06:35N 35°59' W 005°26'219.3
2017-Nov-17 06:30N 35°57' W 005°27'3 1.3
2017-Nov-17 04:26N 35°56' W 005°30'716.0
2017-Nov-17 04:00N 36°02' W 005°25'6 9.5
2017-Nov-17 03:23N 36°08' W 005°26'0 0.0
2017-Nov-17 02:59N 36°08' W 005°26'0 0.0
2017-Nov-17 01:51N 36°08' W 005°26'2 3.6
2017-Nov-17 01:24N 36°08' W 005°24'717.3
2017-Nov-17 01:00N 36°01' W 005°25'6 2.5
2017-Nov-16 22:25N 35°56' W 005°30'716.5
2017-Nov-16 22:00N 36°02' W 005°25'610.3
2017-Nov-16 21:23N 36°08' W 005°26'10 3.9
2017-Nov-16 18:58N 35°59' W 005°26'3 1.2
2017-Nov-16 16:33N 35°57' W 005°29'115.4
2017-Nov-16 16:30N 35°58' W 005°28'816.0
2017-Nov-16 16:00N 36°05' W 005°24'6 2.0
2017-Nov-16 12:51N 35°59' W 005°25'3 1.1
2017-Nov-16 10:15N 35°58' W 005°29'516.9
2017-Nov-16 09:58N 36°02' W 005°25'5 1.7
2017-Nov-16 07:04N 36°07' W 005°24'117.3
2017-Nov-16 07:00N 36°06' W 005°23'917.8
2017-Nov-16 06:31N 35°57' W 005°27'2 1.4
2017-Nov-16 04:57N 35°56' W 005°30'716.2
2017-Nov-16 04:31N 36°02' W 005°25'6 3.5
2017-Nov-16 02:52N 36°08' W 005°26'4 7.8
2017-Nov-16 02:24N 36°05' W 005°24'717.7
2017-Nov-16 02:01N 35°58' W 005°26'4 1.7
2017-Nov-15 23:45N 35°56' W 005°30'415.9
2017-Nov-15 23:30N 35°59' W 005°27'715.0
2017-Nov-15 23:00N 36°06' W 005°24'8 2.6
2017-Nov-15 19:58N 35°59' W 005°26'2 0.8
2017-Nov-15 16:49N 35°58' W 005°29'4 1.0
2017-Nov-15 13:04N 35°60' W 005°25'117.7
2017-Nov-15 13:00N 35°59' W 005°26'4 1.5
2017-Nov-15 10:18N 35°57' W 005°30'5 1.4
2017-Nov-15 07:08N 35°59' W 005°25'217.8
2017-Nov-15 07:00N 35°58' W 005°27'3 1.2
2017-Nov-15 04:57N 35°56' W 005°30'714.8
2017-Nov-15 04:30N 36°01' W 005°24'7 4.1
2017-Nov-15 02:49N 36°08' W 005°26'3 8.2
2017-Nov-15 02:30N 36°06' W 005°24'816.7
2017-Nov-15 02:00N 35°58' W 005°26'3 0.7
2017-Nov-14 22:25N 35°58' W 005°29'3 0.8
2017-Nov-14 19:03N 35°58' W 005°26'119.1
2017-Nov-14 19:00N 35°58' W 005°27'2 0.7
2017-Nov-14 16:15N 35°58' W 005°29'513.5
2017-Nov-14 15:51N 36°02' W 005°24'4 1.2
2017-Nov-14 12:41N 35°58' W 005°26'2 0.9
2017-Nov-14 10:18N 35°58' W 005°29'514.8
2017-Nov-14 09:56N 36°02' W 005°25'6 1.1
2017-Nov-14 04:39N 36°08' W 005°26'0 0.0
2017-Nov-14 04:21N 36°08' W 005°26'0 0.0
2017-Nov-14 03:45N 36°08' W 005°26'0 0.0
2017-Nov-14 03:30N 36°08' W 005°26'0 0.0
2017-Nov-14 02:57N 36°08' W 005°26'0 0.0
2017-Nov-14 02:31N 36°08' W 005°26'0 0.4
2017-Nov-14 01:45N 36°08' W 005°26'2 6.4
2017-Nov-14 01:28N 36°08' W 005°24'817.9
2017-Nov-14 01:00N 35°60' W 005°25'5 1.9
2017-Nov-13 22:17N 35°56' W 005°30'515.2
2017-Nov-13 21:56N 35°60' W 005°25'  

Dump ship's entire track history